Time;durP1;ratioP1;P1;durP2;ratioP2;P2;SDS_P1;SDS_P2;PMS_P1;PMS_P2;Temp;Humidity;BMP_temperature;BMP_pressure;BME280_temperature;BME280_humidity;BME280_pressure;Samples;Min_cycle;Max_cycle;Signal;HPM_P1;HPM_P2
2023/07/23 00:01:38;;;;;;;3.67;2.40;;;17.90;68.00;;;;;;4982044;28;21183;-72
2023/07/23 00:04:05;;;;;;;2.77;2.50;;;18.10;67.20;;;;;;4976783;28;20997;-72
2023/07/23 00:06:33;;;;;;;4.50;3.13;;;18.20;68.00;;;;;;4977714;28;20665;-72
2023/07/23 00:09:00;;;;;;;2.40;1.87;;;18.30;67.50;;;;;;4977378;28;20630;-72
2023/07/23 00:11:28;;;;;;;2.53;2.10;;;18.30;66.50;;;;;;4978754;28;20657;-72
2023/07/23 00:13:55;;;;;;;2.83;2.33;;;18.30;66.50;;;;;;4979935;28;20632;-72
2023/07/23 00:16:22;;;;;;;1.87;1.70;;;18.30;66.80;;;;;;4977236;28;20696;-72
2023/07/23 00:18:49;;;;;;;2.80;2.20;;;18.10;67.70;;;;;;4980407;28;20625;-72
2023/07/23 00:21:16;;;;;;;2.57;2.07;;;18.10;67.60;;;;;;4981007;28;21061;-72
2023/07/23 00:23:43;;;;;;;4.03;2.37;;;18.10;67.60;;;;;;4977848;28;20625;-72
2023/07/23 00:26:10;;;;;;;4.80;2.93;;;18.10;67.60;;;;;;4978654;28;20658;-72
2023/07/23 00:28:38;;;;;;;2.77;2.30;;;18.00;67.80;;;;;;4977899;28;20626;-72
2023/07/23 00:31:05;;;;;;;2.77;2.03;;;18.00;67.60;;;;;;4974377;28;20670;-72
2023/07/23 00:33:32;;;;;;;2.40;2.17;;;18.00;68.30;;;;;;4975680;28;21025;-72
2023/07/23 00:35:59;;;;;;;2.47;1.93;;;17.90;68.50;;;;;;4975631;28;21030;-72
2023/07/23 00:38:25;;;;;;;1.97;1.43;;;17.90;68.70;;;;;;4977760;28;21106;-72
2023/07/23 00:40:56;;;;;;;2.70;2.43;;;17.80;68.80;;;;;;4977717;28;21246;-72
2023/07/23 00:43:22;;;;;;;2.53;1.90;;;17.80;69.00;;;;;;4977877;28;21275;-72
2023/07/23 00:45:51;;;;;;;2.53;1.83;;;17.70;70.60;;;;;;4976696;28;20706;-72
2023/07/23 00:48:18;;;;;;;2.87;2.67;;;17.70;70.10;;;;;;4978332;28;21532;-72
2023/07/23 00:50:44;;;;;;;1.87;1.77;;;17.60;70.20;;;;;;4974514;28;21254;-72
2023/07/23 00:53:11;;;;;;;2.93;2.67;;;17.70;70.10;;;;;;4978070;28;20640;-72
2023/07/23 00:55:38;;;;;;;2.30;2.10;;;17.60;70.20;;;;;;4976733;28;20681;-72
2023/07/23 00:58:05;;;;;;;2.50;2.00;;;17.60;70.20;;;;;;4977558;28;21166;-73
2023/07/23 01:00:32;;;;;;;3.17;2.20;;;17.50;70.20;;;;;;4976652;28;20662;-72
2023/07/23 01:03:00;;;;;;;1.80;1.70;;;17.40;70.70;;;;;;4974522;28;20636;-73
2023/07/23 01:05:27;;;;;;;4.00;2.20;;;17.40;71.50;;;;;;4976395;28;20748;-73
2023/07/23 01:07:55;;;;;;;2.03;1.83;;;17.30;71.30;;;;;;4979614;28;20621;-73
2023/07/23 01:10:22;;;;;;;1.97;1.77;;;17.30;72.30;;;;;;4977835;28;20621;-73
2023/07/23 01:12:51;;;;;;;2.67;1.70;;;17.20;72.10;;;;;;4976828;28;20640;-73
2023/07/23 01:15:18;;;;;;;2.33;2.13;;;17.10;72.80;;;;;;4978014;28;20662;-72
2023/07/23 01:17:47;;;;;;;2.70;2.10;;;17.10;72.90;;;;;;4976680;28;20634;-73
2023/07/23 01:20:17;;;;;;;1.63;1.53;;;17.00;72.80;;;;;;4975071;28;20638;-73
2023/07/23 01:22:45;;;;;;;2.10;1.90;;;16.90;73.70;;;;;;4974975;28;20731;-73
2023/07/23 01:25:13;;;;;;;2.63;2.10;;;16.80;74.50;;;;;;4975150;28;20629;-73
2023/07/23 01:27:40;;;;;;;2.07;1.83;;;16.80;74.80;;;;;;4975358;28;20626;-73
2023/07/23 01:30:09;;;;;;;2.10;1.80;;;16.80;75.60;;;;;;4975591;28;20696;-73
2023/07/23 01:32:37;;;;;;;2.50;2.30;;;16.80;75.00;;;;;;4976698;28;20665;-73
2023/07/23 01:35:09;;;;;;;2.30;2.10;;;16.80;74.80;;;;;;4977180;28;21241;-73
2023/07/23 01:37:36;;;;;;;2.07;1.87;;;16.90;74.20;;;;;;4975186;28;20626;-73
2023/07/23 01:40:06;;;;;;;2.10;1.63;;;16.80;74.30;;;;;;4973863;28;20624;-72
2023/07/23 01:42:35;;;;;;;1.80;1.70;;;16.80;75.40;;;;;;4978479;28;20641;-73
2023/07/23 01:45:02;;;;;;;2.57;2.30;;;16.60;75.60;;;;;;4973989;28;20630;-72
2023/07/23 01:47:30;;;;;;;2.57;2.33;;;16.70;75.10;;;;;;4973207;28;20672;-73
2023/07/23 01:49:57;;;;;;;4.67;1.83;;;16.60;75.00;;;;;;4978090;28;21201;-72
2023/07/23 01:52:26;;;;;;;2.70;1.90;;;16.70;74.90;;;;;;4976950;28;20646;-72
2023/07/23 01:54:54;;;;;;;4.00;1.97;;;16.80;74.30;;;;;;4974969;28;20661;-72
2023/07/23 01:57:23;;;;;;;3.83;2.20;;;16.80;73.80;;;;;;4977601;28;20751;-72
2023/07/23 01:59:52;;;;;;;2.27;2.07;;;16.80;73.30;;;;;;4971255;28;20630;-72
2023/07/23 02:02:20;;;;;;;2.47;1.80;;;16.80;73.70;;;;;;4976820;28;20744;-72
2023/07/23 02:04:47;;;;;;;1.60;1.50;;;16.80;74.00;;;;;;4974228;28;20650;-72
2023/07/23 02:07:15;;;;;;;1.77;1.67;;;16.80;73.30;;;;;;4974533;28;20778;-72
2023/07/23 02:09:43;;;;;;;2.87;2.20;;;16.80;73.90;;;;;;4976100;28;20704;-72
2023/07/23 02:12:10;;;;;;;1.57;1.40;;;16.80;74.00;;;;;;4981860;28;20883;-72
2023/07/23 02:14:40;;;;;;;2.80;2.20;;;16.80;74.20;;;;;;4981787;28;20637;-72
2023/07/23 02:17:07;;;;;;;6.70;1.73;;;16.70;74.50;;;;;;4980138;28;20673;-72
2023/07/23 02:19:36;;;;;;;1.70;1.60;;;16.70;74.10;;;;;;4980668;28;21111;-72
2023/07/23 02:22:06;;;;;;;1.97;1.70;;;16.70;73.80;;;;;;4980044;28;20657;-72
2023/07/23 02:24:33;;;;;;;2.17;1.70;;;16.70;73.90;;;;;;4975976;28;20632;-72
2023/07/23 02:27:00;;;;;;;2.90;2.57;;;16.70;74.30;;;;;;4976408;28;20649;-72
2023/07/23 02:29:27;;;;;;;1.90;1.70;;;16.80;73.50;;;;;;4978500;28;20618;-72
2023/07/23 02:31:55;;;;;;;2.80;2.47;;;16.80;73.40;;;;;;4977707;28;20967;-72
2023/07/23 02:34:22;;;;;;;4.10;1.83;;;16.70;73.50;;;;;;4981813;28;21101;-72
2023/07/23 02:36:49;;;;;;;2.97;2.67;;;16.80;72.60;;;;;;4980443;28;20674;-72
2023/07/23 02:39:17;;;;;;;1.67;1.57;;;16.80;73.60;;;;;;4980969;28;20638;-72
2023/07/23 02:41:44;;;;;;;2.43;2.07;;;16.80;73.60;;;;;;4974516;28;21534;-71
2023/07/23 02:44:13;;;;;;;2.37;1.77;;;16.80;73.80;;;;;;4981796;28;20643;-72
2023/07/23 02:46:40;;;;;;;2.10;2.00;;;16.70;74.00;;;;;;4980410;28;20703;-72
2023/07/23 02:49:09;;;;;;;2.00;1.87;;;16.70;73.90;;;;;;4978661;28;21193;-71
2023/07/23 02:51:37;;;;;;;1.57;1.47;;;16.60;75.20;;;;;;4978058;28;20658;-72
2023/07/23 02:54:05;;;;;;;1.60;1.40;;;16.50;75.00;;;;;;4976578;28;20661;-71
2023/07/23 02:56:32;;;;;;;2.00;1.80;;;16.50;74.80;;;;;;4979793;28;20739;-72
2023/07/23 02:59:01;;;;;;;2.20;1.93;;;16.40;75.30;;;;;;4978039;28;20998;-72
2023/07/23 03:01:28;;;;;;;1.70;1.60;;;16.50;75.90;;;;;;4977508;28;20645;-72
2023/07/23 03:03:55;;;;;;;1.73;1.60;;;16.40;76.30;;;;;;4977298;28;20724;-72
2023/07/23 03:06:24;;;;;;;2.13;1.77;;;16.40;76.60;;;;;;4979087;28;20709;-71
2023/07/23 03:08:51;;;;;;;1.57;1.47;;;16.40;76.40;;;;;;4979149;28;20617;-72
2023/07/23 03:11:19;;;;;;;2.47;1.60;;;16.30;76.70;;;;;;4975995;28;20719;-72
2023/07/23 03:13:45;;;;;;;3.17;2.30;;;16.30;76.30;;;;;;4978566;28;20685;-72
2023/07/23 03:16:13;;;;;;;4.03;2.37;;;16.30;77.50;;;;;;4978282;28;20769;-72
2023/07/23 03:18:40;;;;;;;1.87;1.77;;;16.30;77.30;;;;;;4979777;28;20672;-72
2023/07/23 03:21:07;;;;;;;5.13;2.53;;;16.30;76.30;;;;;;4979097;28;20649;-72
2023/07/23 03:23:35;;;;;;;2.40;1.73;;;16.40;76.20;;;;;;4980460;28;20629;-72
2023/07/23 03:26:02;;;;;;;2.23;2.03;;;16.40;76.30;;;;;;4976534;28;21086;-72
2023/07/23 03:28:28;;;;;;;1.63;1.53;;;16.40;75.30;;;;;;4978089;28;20639;-71
2023/07/23 03:30:55;;;;;;;1.87;1.60;;;16.50;75.60;;;;;;4975877;28;21035;-72
2023/07/23 03:33:22;;;;;;;2.40;2.20;;;16.40;75.90;;;;;;4978122;28;21083;-72
2023/07/23 03:35:49;;;;;;;1.40;1.30;;;16.50;75.70;;;;;;4978228;28;21187;-72
2023/07/23 03:38:17;;;;;;;2.27;1.90;;;16.50;75.20;;;;;;4979138;28;20707;-72
2023/07/23 03:40:47;;;;;;;3.43;1.60;;;16.50;75.40;;;;;;4979366;28;20657;-72
2023/07/23 03:43:15;;;;;;;1.70;1.50;;;16.40;75.30;;;;;;4976382;28;21043;-72
2023/07/23 03:45:42;;;;;;;1.70;1.60;;;16.40;75.30;;;;;;4978118;28;20666;-72
2023/07/23 03:48:10;;;;;;;1.80;1.70;;;16.40;75.80;;;;;;4978013;28;21253;-72
2023/07/23 03:50:39;;;;;;;2.10;1.70;;;16.40;76.10;;;;;;4979279;28;21041;-72
2023/07/23 03:53:07;;;;;;;1.60;1.50;;;16.30;76.10;;;;;;4976307;28;21072;-72
2023/07/23 03:55:34;;;;;;;2.00;1.90;;;16.40;75.90;;;;;;4975821;28;20776;-73
2023/07/23 03:58:03;;;;;;;3.60;1.80;;;16.30;77.30;;;;;;4978011;28;20696;-72
2023/07/23 04:00:31;;;;;;;2.33;2.00;;;16.30;76.60;;;;;;4980877;28;21241;-73
2023/07/23 04:03:00;;;;;;;1.83;1.70;;;16.30;76.50;;;;;;4979066;28;20638;-73
2023/07/23 04:05:27;;;;;;;2.40;2.20;;;16.20;77.40;;;;;;4977762;28;21045;-72
2023/07/23 04:07:56;;;;;;;2.77;1.90;;;16.20;77.10;;;;;;4978333;28;22832;-73
2023/07/23 04:10:24;;;;;;;4.47;2.03;;;16.30;76.90;;;;;;4978123;28;21381;-72
2023/07/23 04:12:51;;;;;;;2.50;2.00;;;16.30;76.40;;;;;;4977168;28;20696;-73
2023/07/23 04:15:19;;;;;;;2.37;1.67;;;16.40;76.90;;;;;;4979046;28;20629;-73
2023/07/23 04:17:46;;;;;;;1.73;1.57;;;16.40;76.90;;;;;;4973618;28;20625;-73
2023/07/23 04:20:13;;;;;;;1.73;1.63;;;16.40;77.10;;;;;;4971552;28;20662;-73
2023/07/23 04:22:40;;;;;;;1.60;1.50;;;16.50;76.70;;;;;;4973765;28;20631;-73
2023/07/23 04:25:07;;;;;;;2.27;2.07;;;16.50;76.80;;;;;;4977219;28;20628;-73
2023/07/23 04:27:34;;;;;;;2.10;1.87;;;16.50;75.90;;;;;;4978109;28;20636;-73
2023/07/23 04:30:01;;;;;;;1.97;1.73;;;16.50;75.80;;;;;;4976936;28;20681;-73
2023/07/23 04:32:29;;;;;;;2.27;1.73;;;16.60;76.10;;;;;;4976298;28;20653;-72
2023/07/23 04:34:56;;;;;;;1.70;1.60;;;16.70;75.80;;;;;;4980259;28;20636;-73
2023/07/23 04:37:22;;;;;;;2.37;1.77;;;16.80;76.10;;;;;;4975906;28;20684;-73
2023/07/23 04:39:49;;;;;;;2.47;2.07;;;16.90;75.70;;;;;;4972969;28;20631;-72
2023/07/23 04:42:16;;;;;;;2.20;1.73;;;16.90;75.10;;;;;;4977355;28;21013;-72
2023/07/23 04:44:43;;;;;;;3.33;1.83;;;17.00;75.50;;;;;;4980215;28;21271;-73
2023/07/23 04:47:10;;;;;;;6.93;2.70;;;17.00;74.90;;;;;;4973587;28;20659;-73
2023/07/23 04:49:38;;;;;;;2.70;1.80;;;17.00;74.70;;;;;;4973633;28;20627;-73
2023/07/23 04:52:05;;;;;;;2.57;2.00;;;17.00;75.90;;;;;;4976867;28;20662;-73
2023/07/23 04:54:32;;;;;;;2.27;1.57;;;17.10;75.50;;;;;;4979241;28;21023;-72
2023/07/23 04:56:59;;;;;;;2.90;2.07;;;17.10;75.80;;;;;;4975892;28;21245;-72
2023/07/23 04:59:25;;;;;;;1.80;1.70;;;17.20;76.80;;;;;;4976858;28;21060;-73
2023/07/23 05:01:52;;;;;;;2.97;2.67;;;17.30;74.90;;;;;;4978663;28;21306;-73
2023/07/23 05:04:19;;;;;;;2.67;2.00;;;17.30;75.10;;;;;;4975254;28;20676;-72
2023/07/23 05:06:48;;;;;;;1.83;1.70;;;17.40;74.90;;;;;;4973999;28;20650;-72
2023/07/23 05:09:15;;;;;;;1.70;1.57;;;17.60;74.20;;;;;;4973031;28;21011;-72
2023/07/23 05:11:41;;;;;;;2.60;1.90;;;17.70;73.60;;;;;;4975625;28;21636;-72
2023/07/23 05:14:08;;;;;;;2.23;2.07;;;17.70;73.50;;;;;;4973158;28;20626;-72
2023/07/23 05:16:35;;;;;;;2.90;2.00;;;17.70;73.40;;;;;;4976831;28;20692;-72
2023/07/23 05:19:03;;;;;;;3.00;2.30;;;17.60;75.70;;;;;;4975367;28;21326;-72
2023/07/23 05:21:30;;;;;;;1.70;1.43;;;17.70;75.50;;;;;;4974290;28;20658;-72
2023/07/23 05:23:58;;;;;;;2.20;1.87;;;17.70;74.90;;;;;;4979671;28;20709;-72
2023/07/23 05:26:25;;;;;;;1.33;1.23;;;17.80;75.40;;;;;;4974677;28;20653;-72
2023/07/23 05:28:52;;;;;;;2.10;1.90;;;17.90;76.70;;;;;;4975472;28;20634;-72
2023/07/23 05:31:19;;;;;;;1.60;1.50;;;18.00;76.00;;;;;;4973368;28;20656;-72
2023/07/23 05:33:45;;;;;;;1.73;1.63;;;18.00;76.00;;;;;;4980020;28;20638;-72
2023/07/23 05:36:12;;;;;;;3.03;1.70;;;18.00;75.70;;;;;;4978693;28;20675;-72
2023/07/23 05:38:39;;;;;;;2.20;1.70;;;18.20;74.00;;;;;;4976510;28;20629;-72
2023/07/23 05:41:07;;;;;;;7.07;1.77;;;18.20;74.20;;;;;;4978928;28;21578;-72
2023/07/23 05:43:34;;;;;;;2.10;2.00;;;18.40;73.70;;;;;;4977880;28;20626;-75
2023/07/23 05:46:00;;;;;;;2.10;1.57;;;18.40;72.30;;;;;;4977486;28;20661;-75
2023/07/23 05:48:27;;;;;;;2.23;2.03;;;18.50;72.70;;;;;;4978834;28;20634;-75
2023/07/23 05:50:54;;;;;;;2.33;2.07;;;18.60;72.20;;;;;;4979232;28;20772;-75
2023/07/23 05:53:21;;;;;;;1.80;1.70;;;18.70;73.00;;;;;;4977020;28;20636;-75
2023/07/23 05:55:48;;;;;;;2.10;1.90;;;18.90;73.40;;;;;;4975323;28;21110;-74
2023/07/23 05:58:16;;;;;;;2.27;1.70;;;18.90;72.40;;;;;;4977571;28;20651;-75
2023/07/23 06:00:42;;;;;;;2.63;2.00;;;18.90;73.30;;;;;;4975648;28;20670;-75
2023/07/23 06:03:09;;;;;;;1.73;1.63;;;19.10;72.70;;;;;;4975558;28;20640;-75
2023/07/23 06:05:36;;;;;;;1.70;1.60;;;19.20;71.90;;;;;;4975230;28;20659;-77
2023/07/23 06:08:03;;;;;;;2.10;1.90;;;19.40;72.30;;;;;;4973675;28;21193;-76
2023/07/23 06:10:30;;;;;;;2.30;1.73;;;19.50;71.30;;;;;;4976053;28;20654;-76
2023/07/23 06:12:56;;;;;;;2.50;2.30;;;19.80;71.90;;;;;;4974793;28;20724;-75
2023/07/23 06:15:25;;;;;;;2.73;1.67;;;19.90;71.80;;;;;;4975808;28;20628;-75
2023/07/23 06:17:51;;;;;;;1.50;1.40;;;20.10;71.00;;;;;;4976619;28;20671;-75
2023/07/23 06:20:18;;;;;;;2.70;1.97;;;20.30;70.20;;;;;;4972197;28;20619;-73
2023/07/23 06:22:45;;;;;;;2.30;2.10;;;20.30;70.40;;;;;;4974378;28;20631;-74
2023/07/23 06:25:12;;;;;;;2.20;1.90;;;20.40;69.70;;;;;;4975781;28;20632;-75
2023/07/23 06:27:39;;;;;;;1.80;1.70;;;20.40;70.40;;;;;;4974019;28;20614;-77
2023/07/23 06:30:07;;;;;;;2.70;1.50;;;20.50;69.20;;;;;;4975835;28;20634;-77
2023/07/23 06:32:35;;;;;;;1.97;1.67;;;20.60;67.40;;;;;;4975036;28;20630;-77
2023/07/23 06:35:02;;;;;;;1.83;1.53;;;20.70;67.60;;;;;;4973813;28;20738;-77
2023/07/23 06:37:28;;;;;;;1.90;1.80;;;20.70;68.70;;;;;;4978763;28;21026;-77
2023/07/23 06:39:55;;;;;;;1.60;1.50;;;20.80;66.90;;;;;;4975557;28;20654;-77
2023/07/23 06:42:22;;;;;;;2.53;2.33;;;20.80;68.90;;;;;;4972518;28;20665;-77
2023/07/23 06:44:49;;;;;;;2.57;2.30;;;20.70;68.20;;;;;;4971236;28;20629;-78
2023/07/23 06:47:16;;;;;;;2.13;2.00;;;20.80;70.40;;;;;;4976479;28;20762;-78
2023/07/23 06:49:44;;;;;;;3.50;2.27;;;20.90;68.60;;;;;;4971823;28;20645;-78
2023/07/23 06:52:10;;;;;;;3.30;2.20;;;21.00;67.20;;;;;;4974357;28;20699;-77
2023/07/23 06:54:40;;;;;;;4.53;2.20;;;21.00;69.90;;;;;;4979109;28;20673;-77
2023/07/23 06:57:08;;;;;;;1.77;1.67;;;21.00;69.00;;;;;;4976475;28;21059;-75
2023/07/23 06:59:34;;;;;;;1.93;1.83;;;21.10;64.70;;;;;;4979022;28;20622;-76
2023/07/23 07:02:01;;;;;;;2.40;2.10;;;21.20;66.70;;;;;;4977725;28;21249;-76
2023/07/23 07:04:28;;;;;;;1.67;1.57;;;21.30;65.10;;;;;;4978181;28;20624;-76
2023/07/23 07:06:56;;;;;;;2.93;2.60;;;21.40;63.10;;;;;;4975212;28;20660;-80
2023/07/23 07:09:23;;;;;;;2.73;2.20;;;21.50;66.30;;;;;;4979928;28;20639;-76
2023/07/23 07:11:51;;;;;;;3.97;2.47;;;21.60;63.70;;;;;;4980608;28;20663;-76
2023/07/23 07:14:17;;;;;;;5.80;1.40;;;21.80;62.90;;;;;;4978466;28;20631;-76
2023/07/23 07:16:45;;;;;;;1.60;1.50;;;21.90;62.90;;;;;;4979898;28;20791;-74
2023/07/23 07:19:12;;;;;;;1.53;1.40;;;22.00;61.60;;;;;;4979290;28;20647;-74
2023/07/23 07:21:39;;;;;;;1.87;1.50;;;22.10;62.40;;;;;;4978520;28;21074;-73
2023/07/23 07:24:07;;;;;;;1.27;1.10;;;22.20;61.30;;;;;;4980393;28;20621;-74
2023/07/23 07:26:34;;;;;;;2.47;2.03;;;22.10;61.80;;;;;;4978609;28;21121;-74
2023/07/23 07:29:01;;;;;;;2.20;2.00;;;22.30;61.90;;;;;;4979902;28;20632;-77
2023/07/23 07:31:28;;;;;;;1.57;1.47;;;22.50;61.60;;;;;;4979741;28;20710;-73
2023/07/23 07:33:54;;;;;;;4.43;2.77;;;22.70;60.80;;;;;;4977423;28;20718;-72
2023/07/23 07:36:21;;;;;;;1.60;1.50;;;22.90;60.50;;;;;;4982096;28;20660;-72
2023/07/23 07:38:48;;;;;;;1.90;1.73;;;23.00;59.90;;;;;;4976720;28;20633;-72
2023/07/23 07:41:16;;;;;;;2.03;1.90;;;23.00;59.90;;;;;;4976139;28;20658;-73
2023/07/23 07:43:43;;;;;;;2.00;1.90;;;23.10;60.00;;;;;;4974287;28;20631;-73
2023/07/23 07:46:09;;;;;;;2.13;1.97;;;23.30;60.10;;;;;;4975492;28;20660;-73
2023/07/23 07:48:37;;;;;;;2.50;2.00;;;23.60;59.50;;;;;;4979087;28;20723;-73
2023/07/23 07:51:05;;;;;;;2.90;2.10;;;23.60;58.50;;;;;;4976696;28;20756;-73
2023/07/23 07:53:33;;;;;;;1.80;1.70;;;23.50;58.40;;;;;;4976787;28;20639;-73
2023/07/23 07:56:01;;;;;;;1.97;1.63;;;23.40;60.80;;;;;;4979778;28;20667;-73
2023/07/23 07:58:30;;;;;;;1.97;1.87;;;23.40;59.20;;;;;;4975604;28;20680;-73
2023/07/23 08:00:58;;;;;;;1.93;1.73;;;23.10;61.70;;;;;;4977293;28;20973;-73
2023/07/23 08:03:28;;;;;;;2.23;2.00;;;22.90;59.90;;;;;;4978149;28;20626;-73
2023/07/23 08:05:56;;;;;;;1.40;1.30;;;22.80;59.20;;;;;;4978933;28;21253;-73
2023/07/23 08:08:26;;;;;;;2.20;2.00;;;22.90;60.40;;;;;;4975384;28;20627;-73
2023/07/23 08:10:54;;;;;;;2.07;1.90;;;23.00;58.80;;;;;;4982803;28;21096;-73
2023/07/23 08:13:21;;;;;;;4.30;4.00;;;23.20;59.30;;;;;;4976928;28;20638;-73
2023/07/23 08:15:49;;;;;;;1.67;1.57;;;23.40;59.80;;;;;;4976270;28;21266;-73
2023/07/23 08:18:17;;;;;;;1.87;1.77;;;23.70;61.80;;;;;;4978489;28;21313;-73
2023/07/23 08:20:44;;;;;;;2.10;1.60;;;23.80;62.40;;;;;;4975456;28;20660;-73
2023/07/23 08:23:11;;;;;;;2.33;1.60;;;23.80;60.30;;;;;;4977894;28;20632;-73
2023/07/23 08:25:39;;;;;;;1.97;1.87;;;23.90;60.00;;;;;;4976497;28;20659;-73
2023/07/23 08:28:08;;;;;;;1.30;1.20;;;24.00;59.50;;;;;;4978170;28;20628;-73
2023/07/23 08:30:35;;;;;;;3.13;1.83;;;24.00;60.20;;;;;;4973659;28;20759;-73
2023/07/23 08:33:04;;;;;;;2.00;1.73;;;23.80;59.00;;;;;;4977050;28;20638;-73
2023/07/23 08:35:31;;;;;;;2.10;1.73;;;23.80;59.90;;;;;;4979608;28;20666;-73
2023/07/23 08:37:59;;;;;;;1.50;1.40;;;23.80;58.80;;;;;;4978651;28;20679;-73
2023/07/23 08:40:27;;;;;;;1.93;1.37;;;23.80;59.10;;;;;;4974505;28;20675;-73
2023/07/23 08:43:17;;;;;;;2.23;1.97;;;23.80;60.30;;;;;;4978365;28;20633;-73
2023/07/23 08:46:20;;;;;;;1.90;1.40;;;24.00;59.70;;;;;;4978626;28;20668;-73
2023/07/23 08:49:03;;;;;;;1.43;1.30;;;24.10;59.60;;;;;;4977954;28;20628;-73
2023/07/23 08:51:33;;;;;;;1.10;1.03;;;24.00;59.30;;;;;;4977780;28;20676;-73
2023/07/23 08:54:01;;;;;;;2.73;1.10;;;24.00;59.00;;;;;;4983491;28;20642;-73
2023/07/23 08:56:28;;;;;;;1.57;1.20;;;23.80;58.90;;;;;;4978598;28;20658;-72
2023/07/23 08:58:56;;;;;;;1.27;1.17;;;23.90;58.60;;;;;;4972380;28;21264;-73
2023/07/23 09:01:24;;;;;;;1.40;1.30;;;24.00;58.50;;;;;;4984003;28;20651;-73
2023/07/23 09:03:53;;;;;;;2.50;1.63;;;24.00;58.30;;;;;;4977719;28;20740;-73
2023/07/23 09:06:20;;;;;;;1.10;1.00;;;24.10;58.30;;;;;;4978888;28;20647;-73
2023/07/23 09:08:47;;;;;;;1.63;1.40;;;24.20;58.90;;;;;;4976726;28;21203;-73
2023/07/23 09:11:14;;;;;;;1.33;1.20;;;24.20;58.50;;;;;;4977436;28;20644;-73
2023/07/23 09:13:41;;;;;;;1.60;1.50;;;24.30;58.20;;;;;;4980222;28;21205;-73
2023/07/23 09:16:07;;;;;;;1.20;1.10;;;24.10;57.90;;;;;;4972897;28;21007;-73
2023/07/23 09:18:39;;;;;;;1.70;1.47;;;24.20;59.50;;;;;;4979501;28;20665;-73
2023/07/23 09:21:09;;;;;;;1.70;1.43;;;24.40;58.50;;;;;;4977180;28;21004;-73
2023/07/23 09:23:36;;;;;;;1.20;1.10;;;24.40;58.70;;;;;;4981110;28;21015;-73
2023/07/23 09:26:02;;;;;;;1.73;1.30;;;24.50;59.60;;;;;;4977683;28;21263;-73
2023/07/23 09:28:29;;;;;;;1.23;1.13;;;24.60;57.70;;;;;;4977560;28;20633;-73
2023/07/23 09:30:57;;;;;;;1.33;1.10;;;24.60;57.70;;;;;;4976106;28;20669;-73
2023/07/23 09:33:33;;;;;;;1.67;1.17;;;24.70;57.30;;;;;;4976789;28;20731;-73
2023/07/23 09:36:00;;;;;;;1.30;1.20;;;24.90;57.40;;;;;;4974728;28;20986;-73
2023/07/23 09:38:29;;;;;;;2.97;1.30;;;25.10;57.40;;;;;;4982173;28;20770;-73
2023/07/23 09:40:56;;;;;;;1.67;1.57;;;25.10;56.50;;;;;;4976725;28;20723;-73
2023/07/23 09:43:23;;;;;;;1.20;1.00;;;25.50;57.50;;;;;;4977681;28;20992;-73
2023/07/23 09:45:51;;;;;;;2.50;1.53;;;25.70;56.20;;;;;;4980808;28;20664;-74
2023/07/23 09:48:18;;;;;;;1.40;1.30;;;25.60;55.00;;;;;;4981387;28;21071;-74
2023/07/23 09:50:45;;;;;;;4.43;1.50;;;25.50;55.70;;;;;;4970953;28;20666;-74
2023/07/23 09:53:15;;;;;;;1.20;1.10;;;25.40;55.80;;;;;;4983999;28;20631;-73
2023/07/23 09:55:44;;;;;;;1.50;1.40;;;25.20;56.20;;;;;;4972846;28;20669;-73
2023/07/23 09:58:12;;;;;;;2.27;1.50;;;25.10;57.20;;;;;;4983390;28;20671;-75
2023/07/23 10:00:42;;;;;;;1.40;1.30;;;25.30;56.60;;;;;;4976277;28;20693;-75
2023/07/23 10:03:10;;;;;;;1.80;1.30;;;25.50;55.60;;;;;;4978229;28;20633;-75
2023/07/23 10:05:37;;;;;;;1.93;1.37;;;25.20;53.90;;;;;;4978908;28;20670;-75
2023/07/23 10:08:04;;;;;;;1.10;1.00;;;25.50;55.50;;;;;;4976963;28;20633;-76
2023/07/23 10:10:31;;;;;;;2.73;1.43;;;25.80;54.40;;;;;;4975709;28;20661;-78
2023/07/23 10:13:00;;;;;;;1.80;1.40;;;25.80;52.90;;;;;;4974580;28;21268;-77
2023/07/23 10:15:27;;;;;;;2.13;1.20;;;25.70;54.70;;;;;;4977768;28;20225;-74
2023/07/23 10:17:59;;;;;;;3.20;1.40;;;25.80;55.10;;;;;;4973546;28;20687;-74
2023/07/23 10:20:28;;;;;;;1.23;1.13;;;25.80;53.60;;;;;;4974141;28;20715;-74
2023/07/23 10:22:55;;;;;;;1.50;1.40;;;26.10;53.80;;;;;;4981548;28;21181;-74
2023/07/23 10:25:31;;;;;;;2.00;1.40;;;26.50;53.40;;;;;;4976330;28;20747;-74
2023/07/23 10:28:01;;;;;;;1.60;1.50;;;26.70;53.30;;;;;;4975932;28;20626;-75
2023/07/23 10:30:29;;;;;;;1.43;1.13;;;26.60;52.40;;;;;;4975703;28;20658;-74
2023/07/23 10:33:30;;;;;;;1.77;1.50;;;26.50;52.40;;;;;;4981482;28;20651;-75
2023/07/23 10:36:02;;;;;;;2.50;2.10;;;26.70;53.80;;;;;;4980577;28;20655;-75
2023/07/23 10:38:30;;;;;;;2.03;1.70;;;26.70;53.60;;;;;;4975343;28;20674;-74
2023/07/23 10:40:58;;;;;;;1.40;1.30;;;27.00;54.70;;;;;;4982495;28;20649;-74
2023/07/23 10:43:38;;;;;;;1.33;1.10;;;27.30;52.30;;;;;;4976639;28;20637;-74
2023/07/23 10:46:06;;;;;;;1.50;1.40;;;27.50;54.70;;;;;;4982126;28;20653;-75
2023/07/23 10:48:43;;;;;;;2.00;1.40;;;27.90;51.70;;;;;;4984096;28;20635;-74
2023/07/23 10:51:11;;;;;;;1.40;1.07;;;28.10;51.00;;;;;;4978062;28;21037;-74
2023/07/23 10:53:40;;;;;;;3.60;1.40;;;28.40;51.30;;;;;;4978178;28;21041;-74
2023/07/23 10:56:29;;;;;;;1.10;1.10;;;28.70;50.00;;;;;;4978365;28;20716;-74
2023/07/23 10:58:58;;;;;;;1.27;1.10;;;28.60;50.60;;;;;;4976074;28;20653;-75
2023/07/23 11:01:27;;;;;;;1.50;1.33;;;28.40;50.00;;;;;;4980460;28;21233;-75
2023/07/23 11:03:58;;;;;;;2.27;1.90;;;27.50;49.30;;;;;;4979582;28;20653;-74
2023/07/23 11:06:30;;;;;;;1.90;1.30;;;27.40;50.40;;;;;;4981144;28;20650;-74
2023/07/23 11:09:03;;;;;;;1.23;1.13;;;27.10;50.50;;;;;;4975561;28;20652;-74
2023/07/23 11:11:35;;;;;;;1.20;1.10;;;27.30;51.10;;;;;;4977790;28;20657;-74
2023/07/23 11:14:16;;;;;;;1.80;1.70;;;27.90;51.10;;;;;;4975713;28;20627;-74
2023/07/23 11:16:43;;;;;;;3.00;1.37;;;28.60;52.20;;;;;;4980816;28;20657;-75
2023/07/23 11:19:10;;;;;;;1.87;1.47;;;28.70;50.00;;;;;;4976469;28;20672;-75
2023/07/23 11:21:49;;;;;;;1.57;1.47;;;28.90;51.00;;;;;;4982909;28;20659;-75
2023/07/23 11:24:16;;;;;;;2.00;1.90;;;28.60;51.20;;;;;;4973915;28;20636;-75
2023/07/23 11:26:43;;;;;;;2.17;1.60;;;28.20;50.20;;;;;;4976109;28;20756;-74
2023/07/23 11:29:11;;;;;;;1.40;1.30;;;27.50;49.80;;;;;;4980328;28;20965;-75
2023/07/23 11:31:39;;;;;;;2.70;1.40;;;27.30;50.40;;;;;;4978942;28;20661;-75
2023/07/23 11:34:06;;;;;;;1.80;1.27;;;27.70;51.20;;;;;;4977549;28;20633;-75
2023/07/23 11:36:33;;;;;;;1.70;1.50;;;28.20;50.80;;;;;;4976712;28;20677;-74
2023/07/23 11:39:02;;;;;;;1.93;1.57;;;28.50;49.50;;;;;;4979352;28;20660;-74
2023/07/23 11:41:30;;;;;;;1.80;1.70;;;28.70;49.40;;;;;;4980352;28;21028;-75
2023/07/23 11:43:58;;;;;;;1.77;1.63;;;29.20;47.10;;;;;;4977888;28;20625;-75
2023/07/23 11:46:26;;;;;;;1.97;1.63;;;29.40;46.40;;;;;;4977354;28;20645;-74
2023/07/23 11:48:54;;;;;;;1.40;1.30;;;29.80;48.00;;;;;;4975006;28;20611;-75
2023/07/23 11:51:21;;;;;;;2.20;1.77;;;30.30;48.10;;;;;;4978003;28;20654;-75
2023/07/23 11:53:51;;;;;;;1.60;1.47;;;29.90;46.50;;;;;;4979498;28;20621;-75
2023/07/23 11:56:18;;;;;;;1.80;1.60;;;29.50;46.20;;;;;;4979887;28;20672;-74
2023/07/23 11:58:45;;;;;;;1.60;1.50;;;29.30;46.70;;;;;;4976963;28;21031;-74
2023/07/23 12:01:12;;;;;;;2.37;2.17;;;29.00;47.90;;;;;;4977753;28;20652;-74
2023/07/23 12:03:42;;;;;;;2.00;1.90;;;29.50;48.00;;;;;;4980328;28;21220;-74
2023/07/23 12:06:08;;;;;;;1.60;1.50;;;30.10;46.60;;;;;;4975761;28;20668;-75
2023/07/23 12:08:38;;;;;;;1.37;1.27;;;30.40;46.00;;;;;;4975109;28;20642;-75
2023/07/23 12:11:09;;;;;;;2.30;2.10;;;29.90;45.20;;;;;;4979011;28;20665;-75
2023/07/23 12:13:42;;;;;;;2.27;2.17;;;29.90;48.00;;;;;;4976033;28;20621;-75
2023/07/23 12:16:13;;;;;;;1.70;1.60;;;29.90;46.00;;;;;;4979132;28;20653;-75
2023/07/23 12:18:46;;;;;;;2.70;1.67;;;29.70;45.40;;;;;;4978728;28;20669;-75
2023/07/23 12:21:17;;;;;;;1.93;1.30;;;29.20;44.40;;;;;;4977900;28;20773;-75
2023/07/23 12:23:44;;;;;;;3.10;1.80;;;28.70;45.80;;;;;;4974748;28;20642;-75
2023/07/23 12:26:10;;;;;;;2.20;1.73;;;28.40;45.40;;;;;;4978125;28;21148;-75
2023/07/23 12:28:37;;;;;;;2.67;1.60;;;28.00;45.90;;;;;;4976871;28;20634;-74
2023/07/23 12:31:04;;;;;;;2.00;1.60;;;28.00;46.50;;;;;;4973510;28;20654;-74
2023/07/23 12:33:31;;;;;;;1.57;1.47;;;27.50;45.80;;;;;;4978341;28;20978;-74
2023/07/23 12:35:59;;;;;;;1.60;1.50;;;27.40;46.80;;;;;;4978142;28;20653;-74
2023/07/23 12:38:26;;;;;;;1.80;1.70;;;27.20;47.70;;;;;;4980224;28;20668;-74
2023/07/23 12:40:52;;;;;;;1.67;1.40;;;27.00;48.10;;;;;;4977124;28;20681;-75
2023/07/23 12:43:19;;;;;;;2.30;1.73;;;26.70;48.30;;;;;;4977836;28;20633;-74
2023/07/23 12:45:46;;;;;;;2.80;2.10;;;26.60;48.70;;;;;;4979982;28;21070;-74
2023/07/23 12:48:13;;;;;;;2.83;2.20;;;26.50;49.30;;;;;;4982468;28;20636;-75
2023/07/23 12:50:39;;;;;;;1.73;1.63;;;26.50;48.90;;;;;;4978516;28;20649;-74
2023/07/23 12:53:08;;;;;;;4.73;1.70;;;26.30;48.90;;;;;;4976105;28;20641;-75